Hauptseite
METAR-TAF:

METAR-TAF

Flughäfen :

Hagåtña, Guam, Vereinigte Staaten

Flughafen Antonio B. Won Pat

Breite: 13-29N, Länge: 144-48E, Höhe: 91 m

Beobachtung

Neuester Wetterbericht von vor 15 Minuten, um 11:54 UTC
Windstille
Temperatur 26°C
Luftfeuchtigkeit 94%
Luftdruck 1012 hPa
Sichtweite: 16.1 km
Himmel klar

METAR: PGUM 211154Z 00000KT 10SM CLR 26/25 A2988 RMK AO2 SLP110 70060 T02610250 10278 20256 51015

Zeit: 22:09 (12:09 UTC)

Prognose

Neuester Wetterbericht von vor 45 Minuten, um 11:24 UTC
Gültige Prognose vom 21 um 12 UTC bis 22 um 18 UTC
Wind 5 kt aus unterschiedlichen Richtungen
Sichtweite: 10 km
Leicht bewölkt in der Höhe von 2000 ft
Aufgelockert bewölkt in der Höhe von 4000 ft
Durchbrochene Bewölkung in der Höhe von 14000 ft
Schauer in der Nähe

TAF: PGUM 211124Z 2112/2218 VRB05KT P6SM VCSH FEW020 SCT040 BKN140

Wetterbeobachtungen und Prognosen von mehr als 4000 Flughäfen (METAR und TAF Bericht).

Die verfügbaren Stationen werden durch gelbe und rote Markierungen auf der Karte dargestellt.

Führen Sie die Maus auf sie, um den Namen der Station zu sehen.

Darauf klicken, um die Beobachtung von Wetterbeobachtungen und Prognosen zu sehen.

Um die Karte zu ändern : klicken Sie auf den grünen Tasten mit einem schwarzen Kreuz Zum Vergrößern, auf den grünen Button mit einem Gedankenstrich zu verkleinern, oder auf die grünen Pfeile für benachbarte Karten.


METAR-TAF: